Time;durP1;ratioP1;P1;durP2;ratioP2;P2;SDS_P1;SDS_P2;PMS_P1;PMS_P2;Temp;Humidity;BMP_temperature;BMP_pressure;BME280_temperature;BME280_humidity;BME280_pressure;Samples;Min_cycle;Max_cycle;Signal;HPM_P1;HPM_P2
2022/04/26 03:36:10;;;;;;;56.33;53.17;;;7.30;99.00;;;;;;5075512;28;20440;-76
2022/04/26 03:38:41;;;;;;;40.77;37.77;;;7.30;99.00;;;;;;5109463;28;20900;-76
2022/04/26 03:41:09;;;;;;;47.63;44.80;;;7.30;99.10;;;;;;5109221;28;20486;-75
2022/04/26 03:43:38;;;;;;;50.53;47.67;;;7.30;99.10;;;;;;5075328;28;21028;-75
2022/04/26 03:46:06;;;;;;;46.50;43.43;;;7.30;99.20;;;;;;5076504;28;20485;-76
2022/04/26 03:48:35;;;;;;;53.87;50.77;;;7.30;99.20;;;;;;5108626;28;20822;-76
2022/04/26 03:51:04;;;;;;;32.20;29.40;;;7.30;99.30;;;;;;5085369;28;20464;-76
2022/04/26 03:53:34;;;;;;;50.00;46.80;;;7.30;99.30;;;;;;5081106;28;20492;-76
2022/04/26 03:56:02;;;;;;;44.00;41.20;;;7.40;99.40;;;;;;5083811;28;20972;-76
2022/04/26 03:58:30;;;;;;;45.07;42.20;;;7.40;99.50;;;;;;5074899;28;20477;-76
2022/04/26 04:00:58;;;;;;;25.10;22.70;;;7.40;99.50;;;;;;5088905;28;20440;-75
2022/04/26 04:03:26;;;;;;;28.87;26.57;;;7.40;99.60;;;;;;5096333;28;20473;-76
2022/04/26 04:05:56;;;;;;;43.80;40.97;;;7.30;99.60;;;;;;5129282;27;20481;-76
2022/04/26 04:08:25;;;;;;;25.67;23.30;;;7.30;99.70;;;;;;5095147;28;20459;-76
2022/04/26 04:10:53;;;;;;;29.03;26.77;;;7.30;99.70;;;;;;5081496;28;20460;-76
2022/04/26 04:13:24;;;;;;;32.57;29.63;;;7.40;99.80;;;;;;5075825;28;21016;-76
2022/04/26 04:15:52;;;;;;;26.70;24.17;;;7.30;99.80;;;;;;5096110;28;20882;-76
2022/04/26 04:21:06;;;;;;;46.57;43.67;;;7.40;99.90;;;;;;5061039;28;21039;-76
2022/04/26 04:23:38;;;;;;;32.20;29.67;;;7.30;99.90;;;;;;5075830;28;20532;-76
2022/04/26 04:26:07;;;;;;;30.57;27.90;;;7.40;99.90;;;;;;5077401;28;20464;-75
2022/04/26 04:28:36;;;;;;;31.17;28.47;;;7.30;99.90;;;;;;5085492;28;20898;-75
2022/04/26 04:31:04;;;;;;;26.40;24.00;;;7.30;99.90;;;;;;5095854;28;20448;-75
2022/04/26 04:33:32;;;;;;;28.67;26.13;;;7.30;99.90;;;;;;5128766;27;20773;-76
2022/04/26 04:36:01;;;;;;;28.30;25.67;;;7.30;99.90;;;;;;5092142;28;21015;-75
2022/04/26 04:38:29;;;;;;;49.33;46.13;;;7.40;99.90;;;;;;5074162;28;20841;-76
2022/04/26 04:40:58;;;;;;;28.57;26.07;;;7.30;99.90;;;;;;5074028;28;20451;-76
2022/04/26 04:43:27;;;;;;;25.97;23.47;;;7.40;99.90;;;;;;5075595;28;20451;-76
2022/04/26 04:45:55;;;;;;;43.03;39.70;;;7.40;99.90;;;;;;5075309;28;20441;-76
2022/04/26 04:48:23;;;;;;;40.77;37.87;;;7.40;99.90;;;;;;5073709;28;20593;-76
2022/04/26 04:50:51;;;;;;;29.17;26.37;;;7.30;99.90;;;;;;5107483;28;20452;-76
2022/04/26 04:53:19;;;;;;;44.43;41.40;;;7.30;99.90;;;;;;5073564;28;20562;-76
2022/04/26 04:55:48;;;;;;;30.27;27.47;;;7.30;99.90;;;;;;5107864;28;20459;-76
2022/04/26 04:58:17;;;;;;;31.57;28.90;;;7.40;99.90;;;;;;5073715;28;20476;-76
2022/04/26 05:00:46;;;;;;;25.53;23.07;;;7.40;99.90;;;;;;5072999;28;20476;-76
2022/04/26 05:03:14;;;;;;;29.17;26.40;;;7.40;99.90;;;;;;5087812;28;20452;-76
2022/04/26 05:05:42;;;;;;;50.00;46.93;;;7.40;99.90;;;;;;5075053;28;20532;-76
2022/04/26 05:08:11;;;;;;;25.83;22.53;;;7.40;99.90;;;;;;5089162;28;20479;-76
2022/04/26 05:10:40;;;;;;;19.47;17.40;;;7.50;99.90;;;;;;5095106;28;20458;-76
2022/04/26 05:13:09;;;;;;;24.57;22.07;;;7.40;99.90;;;;;;5083310;28;20483;-77
2022/04/26 05:15:38;;;;;;;27.50;25.03;;;7.40;99.90;;;;;;5107307;28;20449;-76
2022/04/26 05:18:07;;;;;;;25.10;22.80;;;7.40;99.90;;;;;;5074385;28;20468;-75
2022/04/26 05:20:35;;;;;;;42.43;39.63;;;7.40;99.90;;;;;;5074541;28;20471;-76
2022/04/26 05:25:49;;;;;;;51.23;48.00;;;7.40;99.90;;;;;;5073352;28;20484;-76
2022/04/26 05:28:17;;;;;;;28.50;26.00;;;7.40;99.90;;;;;;5073112;28;20476;-76
2022/04/26 05:30:53;;;;;;;28.73;26.43;;;7.40;99.90;;;;;;5073074;28;20791;-76
2022/04/26 05:33:22;;;;;;;27.97;25.57;;;7.40;99.90;;;;;;5073312;28;20841;-76
2022/04/26 05:35:50;;;;;;;31.07;28.43;;;7.40;99.90;;;;;;5094454;28;20531;-74
2022/04/26 05:38:19;;;;;;;25.43;23.03;;;7.40;99.90;;;;;;5127355;27;20663;-76
2022/04/26 05:40:49;;;;;;;27.37;25.00;;;7.40;99.90;;;;;;5127193;27;20479;-76
2022/04/26 05:43:17;;;;;;;25.03;22.77;;;7.50;99.90;;;;;;5093947;28;21010;-75
2022/04/26 05:45:46;;;;;;;29.07;26.57;;;7.50;99.90;;;;;;5093579;28;20464;-75
2022/04/26 05:48:15;;;;;;;25.17;23.00;;;7.60;99.90;;;;;;5072769;28;20473;-76
2022/04/26 05:50:44;;;;;;;23.40;21.07;;;7.60;99.90;;;;;;5073963;28;20445;-76
2022/04/26 05:53:12;;;;;;;25.53;23.13;;;7.60;99.90;;;;;;5073694;28;20480;-76
2022/04/26 05:55:40;;;;;;;24.80;20.70;;;7.70;99.90;;;;;;5106521;28;20495;-76
2022/04/26 05:58:10;;;;;;;23.33;21.03;;;7.80;99.90;;;;;;5056486;28;20477;-76
2022/04/26 06:00:39;;;;;;;22.63;20.50;;;7.90;99.90;;;;;;5074462;28;20480;-76
2022/04/26 06:03:07;;;;;;;18.87;17.07;;;7.90;99.90;;;;;;5092921;28;20448;-76
2022/04/26 06:05:38;;;;;;;20.90;18.70;;;8.00;99.90;;;;;;5093506;28;20470;-76
2022/04/26 06:08:08;;;;;;;20.20;18.30;;;8.20;99.90;;;;;;5127442;27;20871;-76
2022/04/26 06:10:39;;;;;;;16.60;14.90;;;8.40;99.90;;;;;;5075945;28;20468;-76
2022/04/26 06:13:08;;;;;;;16.27;14.57;;;8.50;99.90;;;;;;5074149;28;20463;-76
2022/04/26 06:15:36;;;;;;;17.40;14.57;;;8.60;99.90;;;;;;5074656;28;20506;-76
2022/04/26 06:18:04;;;;;;;17.10;13.60;;;8.70;99.90;;;;;;5072298;28;20471;-76
2022/04/26 06:20:33;;;;;;;16.33;14.57;;;8.80;99.90;;;;;;5083796;28;20503;-75
2022/04/26 06:23:02;;;;;;;16.50;13.60;;;8.90;99.90;;;;;;5073225;28;20437;-76
2022/04/26 06:25:32;;;;;;;22.43;13.23;;;9.00;99.90;;;;;;5106197;28;20456;-76
2022/04/26 06:28:03;;;;;;;16.03;12.60;;;9.10;99.90;;;;;;5090033;28;20479;-76
2022/04/26 06:30:31;;;;;;;15.27;13.00;;;9.10;99.90;;;;;;5093420;28;20493;-76
2022/04/26 06:32:59;;;;;;;14.90;12.90;;;9.40;99.90;;;;;;5094671;28;20468;-75
2022/04/26 06:35:27;;;;;;;14.40;11.93;;;9.60;99.90;;;;;;5074985;28;20463;-76
2022/04/26 06:37:56;;;;;;;13.10;10.70;;;9.90;99.90;;;;;;5074154;28;20457;-76
2022/04/26 06:40:26;;;;;;;13.90;10.80;;;10.10;99.90;;;;;;5072718;28;20532;-76
2022/04/26 06:42:54;;;;;;;13.90;10.90;;;10.30;99.90;;;;;;5073398;28;20438;-76
2022/04/26 06:45:22;;;;;;;14.87;11.27;;;10.50;99.90;;;;;;5072354;28;20460;-76
2022/04/26 06:47:50;;;;;;;14.30;10.23;;;10.80;99.70;;;;;;5090300;28;20468;-76
2022/04/26 06:50:19;;;;;;;15.73;11.20;;;11.10;99.60;;;;;;5092394;28;20452;-76
2022/04/26 06:52:48;;;;;;;13.00;10.60;;;11.30;99.20;;;;;;5084666;28;20473;-76
2022/04/26 06:55:16;;;;;;;13.83;10.73;;;11.50;99.10;;;;;;5072593;28;20834;-76
2022/04/26 06:57:46;;;;;;;13.57;9.73;;;11.80;99.30;;;;;;5072320;28;20536;-76
2022/04/26 07:00:15;;;;;;;16.00;9.80;;;12.00;99.00;;;;;;5073419;28;20915;-77
2022/04/26 07:02:45;;;;;;;14.57;9.43;;;12.20;98.50;;;;;;5072303;28;20473;-76
2022/04/26 07:05:15;;;;;;;12.53;9.93;;;12.30;98.40;;;;;;5088324;28;20448;-76
2022/04/26 07:07:44;;;;;;;16.90;11.70;;;12.50;98.40;;;;;;5087810;28;20510;-76
2022/04/26 07:10:13;;;;;;;13.97;10.57;;;12.80;98.30;;;;;;5071877;28;20529;-77
2022/04/26 07:12:41;;;;;;;13.57;9.23;;;13.00;98.20;;;;;;5072431;28;20469;-76
2022/04/26 07:15:11;;;;;;;13.83;10.20;;;13.20;98.00;;;;;;5107542;27;20451;-76
2022/04/26 07:17:40;;;;;;;14.73;10.40;;;13.40;97.80;;;;;;5088467;28;20452;-77
2022/04/26 07:20:10;;;;;;;14.00;10.10;;;13.60;97.80;;;;;;5089216;28;20455;-76
2022/04/26 07:22:38;;;;;;;14.80;10.67;;;13.80;97.30;;;;;;5092594;28;20927;-76
2022/04/26 07:25:08;;;;;;;12.70;10.17;;;13.80;96.90;;;;;;5074262;28;20484;-76
2022/04/26 07:27:36;;;;;;;15.73;9.77;;;14.00;97.00;;;;;;5081999;28;20448;-76
2022/04/26 07:30:06;;;;;;;14.70;9.57;;;14.10;96.80;;;;;;5096384;28;21038;-76
2022/04/26 07:35:21;;;;;;;16.27;10.87;;;13.90;95.90;;;;;;5075572;28;20441;-77
2022/04/26 07:37:49;;;;;;;14.10;10.70;;;13.70;95.80;;;;;;5077184;28;20464;-76
2022/04/26 07:40:19;;;;;;;15.70;10.70;;;13.60;95.50;;;;;;5095358;28;20440;-77
2022/04/26 07:42:47;;;;;;;15.90;11.93;;;13.60;95.60;;;;;;5085420;28;20548;-77
2022/04/26 07:45:16;;;;;;;16.80;11.07;;;13.80;95.60;;;;;;5076541;28;20445;-77
2022/04/26 07:47:45;;;;;;;17.17;11.00;;;14.00;95.60;;;;;;5095640;28;20483;-77
2022/04/26 07:50:14;;;;;;;20.87;11.60;;;14.20;95.40;;;;;;5120931;27;20943;-77
2022/04/26 07:52:45;;;;;;;16.07;11.10;;;14.40;95.30;;;;;;5078165;28;20463;-77
2022/04/26 07:55:13;;;;;;;19.40;10.83;;;14.50;95.20;;;;;;5076902;28;20881;-77
2022/04/26 07:57:41;;;;;;;13.10;10.70;;;14.70;95.30;;;;;;5074871;28;20445;-76
2022/04/26 08:00:11;;;;;;;14.13;10.07;;;14.90;95.10;;;;;;5074979;28;20868;-76
2022/04/26 08:02:42;;;;;;;17.33;11.07;;;15.10;94.90;;;;;;5076814;28;20399;-77
2022/04/26 08:05:14;;;;;;;13.80;11.00;;;15.20;94.80;;;;;;5085513;28;20443;-76
2022/04/26 08:07:42;;;;;;;13.13;9.80;;;15.20;94.50;;;;;;5076101;28;20881;-76
2022/04/26 08:10:11;;;;;;;24.73;10.47;;;15.30;94.40;;;;;;5075300;28;20415;-76
2022/04/26 08:12:39;;;;;;;16.20;10.20;;;15.30;94.20;;;;;;5075155;28;20795;-76
2022/04/26 08:15:10;;;;;;;15.23;9.50;;;15.30;94.10;;;;;;5074413;28;20451;-76
2022/04/26 08:17:38;;;;;;;13.40;10.03;;;15.30;94.30;;;;;;5074990;28;20465;-76
2022/04/26 08:20:10;;;;;;;17.90;11.30;;;15.30;94.30;;;;;;5108619;28;20875;-76
2022/04/26 08:22:39;;;;;;;16.23;10.40;;;15.50;94.20;;;;;;5074323;28;20448;-76
2022/04/26 08:27:54;;;;;;;16.47;11.60;;;15.90;93.70;;;;;;5089153;28;20496;-76
2022/04/26 08:30:23;;;;;;;16.40;10.67;;;16.10;93.50;;;;;;5092122;28;20459;-76
2022/04/26 08:32:51;;;;;;;17.27;10.30;;;16.20;93.40;;;;;;5075452;28;20444;-76
2022/04/26 08:35:22;;;;;;;16.40;10.20;;;16.30;93.30;;;;;;5075228;28;20469;-76
2022/04/26 08:38:11;;;;;;;14.73;10.80;;;16.50;93.00;;;;;;5075590;28;20464;-76
2022/04/26 08:40:42;;;;;;;10.97;7.43;;;16.60;92.70;;;;;;5075221;28;20404;-76
2022/04/26 08:43:10;;;;;;;10.93;7.73;;;16.70;92.40;;;;;;5076595;28;20869;-76
2022/04/26 08:45:39;;;;;;;10.67;7.43;;;16.60;92.00;;;;;;5079350;28;20934;-76
2022/04/26 08:51:07;;;;;;;12.20;8.90;;;16.40;91.60;;;;;;5080107;28;20445;-76
2022/04/26 08:53:38;;;;;;;10.93;7.90;;;16.30;91.50;;;;;;5075303;28;21072;-76
2022/04/26 08:56:07;;;;;;;15.90;7.53;;;16.20;90.80;;;;;;5107785;28;20441;-77
2022/04/26 08:58:35;;;;;;;10.73;7.97;;;16.20;90.90;;;;;;5107971;28;20554;-76
2022/04/26 09:01:08;;;;;;;9.53;6.90;;;16.20;90.70;;;;;;5074324;28;20423;-76
2022/04/26 09:03:37;;;;;;;11.50;7.90;;;16.20;90.80;;;;;;5073573;28;20451;-76
2022/04/26 09:06:12;;;;;;;9.17;6.50;;;16.20;90.40;;;;;;5124162;27;20468;-76
2022/04/26 09:08:42;;;;;;;9.80;6.60;;;16.30;90.40;;;;;;5094449;28;20817;-76
2022/04/26 09:11:22;;;;;;;11.53;7.60;;;16.40;90.40;;;;;;5093755;28;20419;-76
2022/04/26 09:13:50;;;;;;;10.30;7.13;;;16.50;90.10;;;;;;5093568;28;20435;-77
2022/04/26 09:16:20;;;;;;;9.70;6.93;;;16.60;90.60;;;;;;5095819;28;20507;-76
2022/04/26 09:18:54;;;;;;;10.57;6.70;;;16.70;90.20;;;;;;5093390;28;20478;-76
2022/04/26 09:21:26;;;;;;;10.10;7.33;;;16.80;90.00;;;;;;5076773;28;20448;-76
2022/04/26 09:24:00;;;;;;;11.07;7.43;;;16.90;89.30;;;;;;5073587;28;20435;-76
2022/04/26 09:26:36;;;;;;;9.67;6.80;;;16.90;88.70;;;;;;5107618;28;20843;-76
2022/04/26 09:29:05;;;;;;;10.43;6.70;;;16.90;88.80;;;;;;5072857;28;21007;-76
2022/04/26 09:31:35;;;;;;;9.20;6.57;;;16.90;88.60;;;;;;5085679;28;21036;-76
2022/04/26 09:34:06;;;;;;;10.43;6.67;;;17.00;88.40;;;;;;5096117;28;20427;-76
2022/04/26 09:36:43;;;;;;;11.23;7.90;;;17.10;88.50;;;;;;5085772;28;20897;-77
2022/04/26 09:39:18;;;;;;;9.50;6.40;;;17.10;88.00;;;;;;5093374;28;20455;-76
2022/04/26 09:42:07;;;;;;;10.13;6.97;;;17.20;87.30;;;;;;5095839;28;20903;-76
2022/04/26 09:44:38;;;;;;;10.40;7.07;;;17.30;87.20;;;;;;5095765;28;20494;-76
2022/04/26 09:47:07;;;;;;;11.40;6.93;;;17.30;86.40;;;;;;5126123;27;20982;-76
2022/04/26 09:49:40;;;;;;;11.37;8.30;;;17.30;86.40;;;;;;5117763;27;20464;-76
2022/04/26 09:52:13;;;;;;;11.60;8.70;;;17.30;86.40;;;;;;5093200;28;20498;-77
2022/04/26 09:54:44;;;;;;;11.10;8.43;;;17.40;86.80;;;;;;5094109;28;20967;-77
2022/04/26 09:57:16;;;;;;;11.80;8.50;;;17.40;87.10;;;;;;5095053;28;20818;-77
2022/04/26 10:00:10;;;;;;;12.50;9.40;;;17.50;87.30;;;;;;5085739;28;20832;-77
2022/04/26 10:02:42;;;;;;;12.73;7.97;;;17.70;87.20;;;;;;5107188;28;20445;-76
2022/04/26 10:05:11;;;;;;;11.37;7.90;;;17.70;86.70;;;;;;5076891;28;20527;-76
2022/04/26 10:07:45;;;;;;;11.40;8.67;;;17.60;86.80;;;;;;5094603;28;20475;-76
2022/04/26 10:10:15;;;;;;;11.07;9.00;;;17.60;86.50;;;;;;5080576;28;20432;-76
2022/04/26 10:13:31;;;;;;;10.70;8.23;;;17.70;86.40;;;;;;5074183;28;20445;-77
2022/04/26 10:15:33;;;;;;;11.43;9.37;;;17.60;85.90;;;;;;5074595;28;20563;-76
2022/04/26 10:18:01;;;;;;;11.60;8.97;;;17.70;86.40;;;;;;5089916;28;20514;-77
2022/04/26 10:20:43;;;;;;;12.70;8.30;;;17.60;85.50;;;;;;5074350;28;20528;-76
2022/04/26 10:23:11;;;;;;;12.80;8.57;;;17.60;85.50;;;;;;5073022;28;20476;-76
2022/04/26 10:25:41;;;;;;;10.97;8.77;;;17.60;85.70;;;;;;5072247;28;20963;-77
2022/04/26 10:28:26;;;;;;;11.30;8.37;;;17.70;86.00;;;;;;5073513;28;20461;-77
2022/04/26 10:30:56;;;;;;;17.73;8.60;;;17.80;86.00;;;;;;5074510;28;20774;-76
2022/04/26 10:33:42;;;;;;;11.20;8.40;;;17.90;86.10;;;;;;5073738;28;20458;-76
2022/04/26 10:36:32;;;;;;;10.20;8.30;;;18.00;85.30;;;;;;5081454;28;20464;-76
2022/04/26 10:39:23;;;;;;;10.57;7.93;;;18.20;85.10;;;;;;5093245;28;20471;-76
2022/04/26 10:41:53;;;;;;;9.97;7.57;;;18.20;84.70;;;;;;5091108;28;20451;-76
2022/04/26 10:44:27;;;;;;;11.13;7.67;;;18.20;84.30;;;;;;5093443;28;20436;-76
2022/04/26 10:47:35;;;;;;;9.70;7.23;;;18.10;83.10;;;;;;5092671;28;20479;-76
2022/04/26 10:50:08;;;;;;;12.00;7.93;;;18.10;82.80;;;;;;5113102;28;20567;-76
2022/04/26 10:52:49;;;;;;;11.97;8.70;;;18.00;82.90;;;;;;5106598;28;20460;-76
2022/04/26 10:55:20;;;;;;;11.33;8.13;;;18.00;82.80;;;;;;5074326;28;20981;-76
2022/04/26 10:57:53;;;;;;;11.40;8.60;;;18.00;82.80;;;;;;5073890;28;20835;-76
2022/04/26 11:00:28;;;;;;;10.13;8.37;;;18.00;83.20;;;;;;5108912;27;20483;-76
2022/04/26 11:03:02;;;;;;;11.00;7.43;;;17.90;82.50;;;;;;5093166;28;20452;-76
2022/04/26 11:05:34;;;;;;;12.13;8.90;;;17.80;82.50;;;;;;5094973;28;20590;-76
2022/04/26 11:08:05;;;;;;;10.40;9.00;;;17.80;82.30;;;;;;5095869;28;20478;-76
2022/04/26 11:13:35;;;;;;;10.47;7.87;;;17.70;81.30;;;;;;5076600;28;20516;-76
2022/04/26 11:16:13;;;;;;;12.27;8.10;;;17.80;81.50;;;;;;5112331;28;20468;-76
2022/04/26 11:18:43;;;;;;;9.30;7.37;;;17.90;81.70;;;;;;5108212;28;20469;-76
2022/04/26 11:21:14;;;;;;;12.07;7.47;;;17.90;81.70;;;;;;5080504;28;20480;-77
2022/04/26 11:29:27;;;;;;;10.80;8.37;;;17.90;80.80;;;;;;5076029;28;20559;-76
2022/04/26 11:31:56;;;;;;;10.50;8.23;;;17.80;80.40;;;;;;5075361;28;20463;-76
2022/04/26 11:34:49;;;;;;;10.40;7.07;;;17.80;80.50;;;;;;5076379;28;20868;-76
2022/04/26 11:37:17;;;;;;;11.53;7.77;;;17.80;80.30;;;;;;5077485;28;20836;-76
2022/04/26 11:39:45;;;;;;;11.57;8.00;;;17.90;80.00;;;;;;5076660;28;20461;-76
2022/04/26 11:42:13;;;;;;;9.63;7.50;;;17.90;80.00;;;;;;5074993;28;20453;-76
2022/04/26 11:45:00;;;;;;;9.10;7.30;;;18.00;80.10;;;;;;5077051;28;20468;-76
2022/04/26 11:47:48;;;;;;;9.70;7.53;;;18.00;79.80;;;;;;5076775;28;20516;-76
2022/04/26 11:50:24;;;;;;;10.50;8.40;;;18.00;79.60;;;;;;5087356;28;20456;-76
2022/04/26 11:52:55;;;;;;;10.50;7.43;;;18.00;79.70;;;;;;5076843;28;20434;-76
2022/04/26 11:55:25;;;;;;;11.40;8.20;;;18.00;79.50;;;;;;5109378;28;20460;-76
2022/04/26 11:58:04;;;;;;;9.93;8.10;;;18.10;79.40;;;;;;5074734;28;20465;-76
2022/04/26 12:00:34;;;;;;;10.90;8.83;;;18.10;79.20;;;;;;5075206;28;20469;-76
2022/04/26 12:03:04;;;;;;;15.70;9.67;;;18.00;79.00;;;;;;5075390;28;20445;-76
2022/04/26 12:05:37;;;;;;;11.53;8.77;;;18.00;78.60;;;;;;5075974;28;20407;-76
2022/04/26 12:08:10;;;;;;;11.50;8.50;;;17.90;77.70;;;;;;5076213;28;20510;-76
2022/04/26 12:10:39;;;;;;;11.70;9.40;;;17.80;78.20;;;;;;5080944;28;21005;-76
2022/04/26 12:13:07;;;;;;;11.77;9.77;;;17.80;78.40;;;;;;5090902;28;20502;-76
2022/04/26 12:15:39;;;;;;;12.40;10.17;;;17.90;78.50;;;;;;5088456;28;20470;-76
2022/04/26 12:18:13;;;;;;;14.23;10.70;;;17.90;78.50;;;;;;5095361;28;20450;-76
2022/04/26 12:21:01;;;;;;;14.13;11.33;;;17.90;78.50;;;;;;5094979;28;20485;-76
2022/04/26 12:23:30;;;;;;;13.00;9.57;;;17.80;78.40;;;;;;5094534;28;20524;-76
2022/04/26 12:26:02;;;;;;;13.37;10.13;;;17.80;78.70;;;;;;5096601;28;20777;-76
2022/04/26 12:28:31;;;;;;;11.37;8.67;;;17.80;78.80;;;;;;5094533;28;20513;-75
2022/04/26 12:31:01;;;;;;;12.00;9.30;;;17.80;78.90;;;;;;5083445;28;20895;-76
2022/04/26 12:33:32;;;;;;;15.03;11.10;;;17.90;79.30;;;;;;5114756;27;20453;-76
2022/04/26 12:36:02;;;;;;;14.40;11.27;;;17.80;79.40;;;;;;5095012;28;20484;-76
2022/04/26 12:38:30;;;;;;;12.70;10.53;;;17.80;79.30;;;;;;5125291;27;20538;-76
2022/04/26 12:41:06;;;;;;;16.37;11.30;;;17.70;79.40;;;;;;5075427;28;20448;-75
2022/04/26 12:43:34;;;;;;;14.30;10.70;;;17.70;79.90;;;;;;5076300;28;20428;-76
2022/04/26 12:46:06;;;;;;;12.63;10.40;;;17.60;80.70;;;;;;5073943;28;20529;-76
2022/04/26 12:51:24;;;;;;;11.87;10.07;;;17.40;82.20;;;;;;5094470;28;20769;-76
2022/04/26 12:54:08;;;;;;;13.00;10.20;;;17.30;82.90;;;;;;5093629;28;20810;-76
2022/04/26 12:56:37;;;;;;;13.90;9.50;;;17.20;83.70;;;;;;5128080;27;20464;-76
2022/04/26 12:59:16;;;;;;;13.00;10.77;;;17.10;84.00;;;;;;5095748;28;20454;-76
2022/04/26 13:01:45;;;;;;;12.90;9.33;;;17.10;84.80;;;;;;5081949;28;20484;-76
2022/04/26 13:04:14;;;;;;;15.93;10.30;;;17.00;84.80;;;;;;5074832;28;20433;-75
2022/04/26 13:06:44;;;;;;;13.00;10.03;;;17.00;85.20;;;;;;5092257;28;20805;-76
2022/04/26 13:09:32;;;;;;;13.43;10.07;;;16.90;85.50;;;;;;5128591;27;20848;-76
2022/04/26 13:12:01;;;;;;;11.47;9.00;;;16.90;85.90;;;;;;5078753;28;20804;-76
2022/04/26 13:14:29;;;;;;;12.93;9.87;;;16.80;86.20;;;;;;5077810;28;20450;-76
2022/04/26 13:17:20;;;;;;;13.87;10.70;;;16.80;86.50;;;;;;5094468;28;20472;-76
2022/04/26 13:19:48;;;;;;;15.87;9.90;;;16.70;87.30;;;;;;5093419;28;20447;-76
2022/04/26 13:22:18;;;;;;;13.20;9.40;;;16.50;86.50;;;;;;5093995;28;20925;-75
2022/04/26 13:24:46;;;;;;;13.57;9.43;;;16.40;86.70;;;;;;5094160;28;20418;-76
2022/04/26 13:27:14;;;;;;;16.03;9.63;;;16.30;86.80;;;;;;5127658;27;20429;-76
2022/04/26 13:29:42;;;;;;;11.90;9.77;;;16.30;87.10;;;;;;5094636;28;20442;-76
2022/04/26 13:32:10;;;;;;;12.73;10.10;;;16.30;87.30;;;;;;5094149;28;20422;-76
2022/04/26 13:34:40;;;;;;;11.87;9.77;;;16.20;87.30;;;;;;5116652;27;20955;-75
2022/04/26 13:37:09;;;;;;;14.97;9.70;;;16.20;87.40;;;;;;5074437;28;20538;-76
2022/04/26 13:39:39;;;;;;;11.50;9.20;;;16.30;87.60;;;;;;5072988;28;21023;-75
2022/04/26 13:42:09;;;;;;;12.23;9.27;;;16.30;87.40;;;;;;5090940;28;20456;-76
2022/04/26 13:44:37;;;;;;;13.70;9.57;;;16.30;87.50;;;;;;5093095;28;20509;-76
2022/04/26 13:47:06;;;;;;;13.87;9.40;;;16.30;87.50;;;;;;5093036;28;20838;-76
2022/04/26 13:49:35;;;;;;;13.07;9.33;;;16.40;87.60;;;;;;5093750;28;20474;-75
2022/04/26 13:52:06;;;;;;;12.20;10.00;;;16.40;87.30;;;;;;5092019;28;20419;-76
2022/04/26 13:54:34;;;;;;;12.43;8.63;;;16.30;87.10;;;;;;5089229;28;20487;-76
2022/04/26 13:57:05;;;;;;;12.10;9.20;;;16.30;87.10;;;;;;5074548;28;21028;-76
2022/04/26 13:59:33;;;;;;;13.40;10.17;;;16.20;86.90;;;;;;5074526;28;20468;-76
2022/04/26 14:02:05;;;;;;;12.07;8.77;;;16.20;87.00;;;;;;5073295;28;20453;-76
2022/04/26 14:04:34;;;;;;;16.03;10.07;;;16.20;86.70;;;;;;5091028;28;20894;-75
2022/04/26 14:07:05;;;;;;;14.27;9.00;;;16.10;87.20;;;;;;5094749;28;20425;-75
2022/04/26 14:09:33;;;;;;;13.07;9.33;;;16.10;86.70;;;;;;5076676;28;20480;-75
2022/04/26 14:12:03;;;;;;;11.37;8.77;;;16.10;86.40;;;;;;5106240;28;20420;-76
2022/04/26 14:22:50;;;;;;;12.53;9.70;;;16.20;86.30;;;;;;5093606;28;20436;-76
2022/04/26 14:25:18;;;;;;;13.10;9.73;;;16.30;86.30;;;;;;5092374;28;20469;-76
2022/04/26 14:27:49;;;;;;;11.47;8.37;;;16.30;86.10;;;;;;5081955;28;20555;-75
2022/04/26 14:30:18;;;;;;;12.40;8.57;;;16.30;85.80;;;;;;5072838;28;20461;-75
2022/04/26 14:33:06;;;;;;;11.77;8.20;;;16.30;85.50;;;;;;5073393;28;20444;-75
2022/04/26 14:35:34;;;;;;;10.83;7.97;;;16.30;85.50;;;;;;5084458;28;20795;-75
2022/04/26 14:38:04;;;;;;;12.47;7.50;;;16.30;85.20;;;;;;5092733;28;20465;-76
2022/04/26 14:40:33;;;;;;;11.40;8.30;;;16.30;85.10;;;;;;5092672;28;20499;-76
2022/04/26 14:43:06;;;;;;;10.67;7.90;;;16.40;84.80;;;;;;5092295;28;20433;-76
2022/04/26 14:45:42;;;;;;;11.40;8.03;;;16.30;84.60;;;;;;5092541;28;20422;-76
2022/04/26 14:48:11;;;;;;;11.17;8.00;;;16.40;84.40;;;;;;5094181;28;20434;-75
2022/04/26 14:50:40;;;;;;;11.50;8.10;;;16.40;84.30;;;;;;5085226;28;20408;-75
2022/04/26 14:53:10;;;;;;;11.53;8.03;;;16.30;84.10;;;;;;5091027;28;20442;-75
2022/04/26 14:55:59;;;;;;;11.57;7.70;;;16.30;84.00;;;;;;5094404;28;20786;-76
2022/04/26 14:58:29;;;;;;;12.87;8.57;;;16.30;84.20;;;;;;5092034;28;20483;-76
2022/04/26 15:00:57;;;;;;;12.83;9.10;;;16.30;84.30;;;;;;5093271;28;20501;-75
2022/04/26 15:03:26;;;;;;;11.30;8.43;;;16.30;84.20;;;;;;5092483;28;20562;-75
2022/04/26 15:05:54;;;;;;;14.23;8.33;;;16.20;84.00;;;;;;5083149;28;20437;-76
2022/04/26 15:11:10;;;;;;;11.30;8.13;;;16.10;84.10;;;;;;5083640;28;20530;-76
2022/04/26 15:16:38;;;;;;;13.27;9.93;;;16.10;84.50;;;;;;5093635;28;20510;-77
2022/04/26 15:19:07;;;;;;;13.17;9.00;;;16.10;84.50;;;;;;5093403;28;20447;-77
2022/04/26 15:21:35;;;;;;;11.20;8.30;;;16.10;84.70;;;;;;5092556;28;20525;-77
2022/04/26 15:24:06;;;;;;;13.20;8.30;;;16.10;84.70;;;;;;5092206;28;20522;-77
2022/04/26 15:26:36;;;;;;;12.00;9.27;;;16.10;84.90;;;;;;5093022;28;20447;-76
2022/04/26 15:29:05;;;;;;;12.30;9.17;;;16.10;85.00;;;;;;5092959;28;20493;-77
2022/04/26 15:31:35;;;;;;;12.00;8.80;;;16.00;85.00;;;;;;5092659;28;20860;-76
2022/04/26 15:34:04;;;;;;;14.60;8.60;;;16.00;85.10;;;;;;5082355;28;21026;-76
2022/04/26 15:36:33;;;;;;;12.90;9.30;;;16.00;85.20;;;;;;5072766;28;20507;-77
2022/04/26 15:39:01;;;;;;;11.30;7.70;;;16.00;85.20;;;;;;5081992;28;20811;-74
2022/04/26 15:41:32;;;;;;;12.37;8.10;;;15.90;85.20;;;;;;5093731;28;20426;-77
2022/04/26 15:44:03;;;;;;;9.30;7.40;;;15.80;85.30;;;;;;5093093;28;20418;-77
2022/04/26 15:46:41;;;;;;;10.50;7.23;;;15.80;85.40;;;;;;5095875;28;20448;-77
2022/04/26 15:49:10;;;;;;;15.83;8.60;;;15.80;85.50;;;;;;5091403;28;20463;-77
2022/04/26 15:51:39;;;;;;;10.03;7.10;;;15.70;85.30;;;;;;5090574;28;20486;-77
2022/04/26 15:54:07;;;;;;;10.10;7.03;;;15.80;85.30;;;;;;5096797;28;20517;-77
2022/04/26 15:56:37;;;;;;;11.33;7.00;;;15.70;85.30;;;;;;5096980;28;20513;-78
2022/04/26 15:59:06;;;;;;;10.00;7.10;;;15.70;85.30;;;;;;5098229;28;20533;-77
2022/04/26 16:01:36;;;;;;;10.60;6.53;;;15.70;85.10;;;;;;5096775;28;20415;-77
2022/04/26 16:04:05;;;;;;;11.33;6.77;;;15.70;85.00;;;;;;5092541;28;20428;-77
2022/04/26 16:06:34;;;;;;;15.50;7.60;;;15.60;84.90;;;;;;5092650;28;20419;-77
2022/04/26 16:22:48;;;;;;;9.97;6.10;;;15.50;85.10;;;;;;5096474;28;20418;-77
2022/04/26 16:25:16;;;;;;;10.27;6.80;;;15.50;85.10;;;;;;5096497;28;20444;-77
2022/04/26 16:27:48;;;;;;;9.50;5.80;;;15.40;85.00;;;;;;5096788;28;20452;-77
2022/04/26 16:30:16;;;;;;;11.90;6.53;;;15.40;85.10;;;;;;5129079;27;20484;-77
2022/04/26 16:32:45;;;;;;;10.20;5.87;;;15.50;85.40;;;;;;5077637;28;20412;-78
2022/04/26 16:35:13;;;;;;;12.80;5.23;;;15.50;85.10;;;;;;5077015;28;20414;-77
2022/04/26 16:37:42;;;;;;;10.07;5.77;;;15.40;84.70;;;;;;5075371;28;20450;-77
2022/04/26 16:40:11;;;;;;;10.20;6.30;;;15.40;85.00;;;;;;5087135;28;20418;-77
2022/04/26 16:42:40;;;;;;;9.97;6.07;;;15.40;84.80;;;;;;5130226;27;20426;-77
2022/04/26 16:45:10;;;;;;;8.17;4.53;;;15.40;84.80;;;;;;5095722;28;20450;-77
2022/04/26 16:47:38;;;;;;;9.97;5.10;;;15.40;85.30;;;;;;5088909;28;20512;-77
2022/04/26 16:50:07;;;;;;;11.70;5.00;;;15.40;85.20;;;;;;5094570;28;20850;-77
2022/04/26 16:52:36;;;;;;;9.33;4.97;;;15.30;85.10;;;;;;5129009;27;20471;-77
2022/04/26 16:55:05;;;;;;;7.87;4.77;;;15.40;85.50;;;;;;5096539;28;20441;-77
2022/04/26 16:57:33;;;;;;;12.93;4.93;;;15.40;85.70;;;;;;5095097;28;20435;-77
2022/04/26 17:00:02;;;;;;;9.90;4.83;;;15.40;85.80;;;;;;5092219;28;20449;-77
2022/04/26 17:02:33;;;;;;;9.63;5.13;;;15.40;85.60;;;;;;5109314;28;20445;-77
2022/04/26 17:05:01;;;;;;;8.40;4.13;;;15.50;86.10;;;;;;5076830;28;20448;-77
2022/04/26 17:07:29;;;;;;;14.43;4.80;;;15.70;86.70;;;;;;5077638;28;20918;-77
2022/04/26 17:09:57;;;;;;;13.20;4.93;;;16.00;86.60;;;;;;5078915;28;20487;-77
2022/04/26 17:12:26;;;;;;;15.40;4.30;;;16.30;86.30;;;;;;5077845;28;20419;-73
2022/04/26 17:14:55;;;;;;;9.40;4.30;;;16.60;86.20;;;;;;5079794;28;20937;-74
2022/04/26 17:17:25;;;;;;;8.97;4.20;;;16.90;85.70;;;;;;5093816;28;20552;-77
2022/04/26 17:19:54;;;;;;;9.43;5.20;;;17.20;85.80;;;;;;5095982;28;20502;-77
2022/04/26 17:22:23;;;;;;;8.87;4.07;;;17.60;85.30;;;;;;5091084;28;20915;-77